createdAt,value
2022-11-13T00:02:58.120Z,10.82
2022-11-13T00:06:16.912Z,10.73
2022-11-13T00:09:35.897Z,10.15
2022-11-13T00:12:54.917Z,10.38
2022-11-13T00:16:14.898Z,10.07
2022-11-13T00:19:33.916Z,10.32
2022-11-13T00:22:53.046Z,9.55
2022-11-13T00:26:16.918Z,9.43
2022-11-13T00:29:35.940Z,10.10
2022-11-13T00:32:54.944Z,10.18
2022-11-13T00:36:34.924Z,9.82
2022-11-13T00:39:58.528Z,10.82
2022-11-13T00:43:17.935Z,9.57
2022-11-13T00:46:36.956Z,10.40
2022-11-13T00:49:55.931Z,11.10
2022-11-13T00:53:07.936Z,9.50
2022-11-13T00:56:26.952Z,10.25
2022-11-13T00:59:45.948Z,10.35
2022-11-13T01:03:04.951Z,10.23
2022-11-13T01:06:39.008Z,9.18
2022-11-13T01:09:57.937Z,11.23
2022-11-13T01:13:09.943Z,10.20
2022-11-13T01:16:29.957Z,9.75
2022-11-13T01:19:48.918Z,10.02
2022-11-13T01:23:07.962Z,10.07
2022-11-13T01:26:32.941Z,10.95
2022-11-13T01:29:51.978Z,10.80
2022-11-13T01:33:10.950Z,10.90
2022-11-13T01:36:32.972Z,9.70
2022-11-13T01:39:51.947Z,9.68
2022-11-13T01:43:10.997Z,10.10
2022-11-13T01:46:34.949Z,9.43
2022-11-13T01:49:54.944Z,9.45
2022-11-13T01:53:13.948Z,9.48
2022-11-13T01:56:32.982Z,8.80
2022-11-13T02:00:00.949Z,8.73
2022-11-13T02:03:12.988Z,9.18
2022-11-13T02:06:32.949Z,8.40
2022-11-13T02:09:53.949Z,8.95
2022-11-13T02:13:12.946Z,8.80
2022-11-13T02:16:32.002Z,8.35
2022-11-13T02:19:53.941Z,8.75
2022-11-13T02:23:27.003Z,9.30
2022-11-13T02:26:45.963Z,9.02
2022-11-13T02:30:07.445Z,10.18
2022-11-13T02:33:34.934Z,11.10
2022-11-13T02:36:46.971Z,9.88
2022-11-13T02:40:05.968Z,10.30
2022-11-13T02:43:17.979Z,10.85
2022-11-13T02:46:36.967Z,11.02
2022-11-13T02:49:55.950Z,10.20
2022-11-13T02:53:14.968Z,9.80
2022-11-13T02:56:33.994Z,10.77
2022-11-13T02:59:52.976Z,10.65
2022-11-13T03:03:12.014Z,10.25
2022-11-13T03:06:31.018Z,10.88
2022-11-13T03:09:50.011Z,11.65
2022-11-13T03:13:09.001Z,11.15
2022-11-13T03:16:29.981Z,10.70
2022-11-13T03:19:48.997Z,10.48
2022-11-13T03:23:07.977Z,10.63
2022-11-13T03:26:29.024Z,10.48
2022-11-13T03:29:47.971Z,10.35
2022-11-13T03:33:09.995Z,10.68
2022-11-13T03:36:30.030Z,10.05
2022-11-13T03:39:49.010Z,9.80
2022-11-13T03:43:08.002Z,9.70
2022-11-13T03:46:21.013Z,10.63
2022-11-13T03:49:39.972Z,10.13
2022-11-13T03:52:59.007Z,9.23
2022-11-13T03:56:18.010Z,9.68
2022-11-13T03:59:37.022Z,9.10
2022-11-13T04:02:48.992Z,9.45
2022-11-13T04:06:08.068Z,8.75
2022-11-13T04:09:27.001Z,8.80
2022-11-13T04:12:46.025Z,8.82
2022-11-13T04:16:05.016Z,9.85
2022-11-13T04:19:24.014Z,9.52
2022-11-13T04:22:43.013Z,8.57
2022-11-13T04:26:02.046Z,8.82
2022-11-13T04:29:20.997Z,8.98
2022-11-13T04:32:40.097Z,9.25
2022-11-13T04:35:59.031Z,8.48
2022-11-13T04:39:18.024Z,8.57
2022-11-13T04:42:54.999Z,8.93
2022-11-13T04:46:14.037Z,8.40
2022-11-13T04:49:33.010Z,8.82
2022-11-13T04:52:52.031Z,8.80
2022-11-13T04:56:11.027Z,7.93
2022-11-13T04:59:30.018Z,8.70
2022-11-13T05:02:49.016Z,9.73
2022-11-13T05:06:01.020Z,9.10
2022-11-13T05:09:20.024Z,8.93
2022-11-13T05:12:39.039Z,8.25
2022-11-13T05:15:58.177Z,9.18
2022-11-13T05:19:17.035Z,8.30
2022-11-13T05:22:29.036Z,9.30
2022-11-13T05:25:48.045Z,9.30
2022-11-13T05:29:07.021Z,9.32
2022-11-13T05:32:26.055Z,8.75
2022-11-13T05:35:45.074Z,8.82
2022-11-13T05:39:04.022Z,9.88
2022-11-13T05:42:23.039Z,9.48
2022-11-13T05:45:42.054Z,9.27
2022-11-13T05:49:02.033Z,9.55
2022-11-13T05:52:21.048Z,8.88
2022-11-13T05:55:40.116Z,9.60
2022-11-13T05:58:59.057Z,8.52
2022-11-13T06:02:18.141Z,9.55
2022-11-13T06:05:37.044Z,8.98
2022-11-13T06:08:57.068Z,9.50
2022-11-13T06:12:16.062Z,8.82
2022-11-13T06:15:35.058Z,8.32
2022-11-13T06:18:55.059Z,9.63
2022-11-13T06:22:14.130Z,9.40
2022-11-13T06:25:33.070Z,10.50
2022-11-13T06:28:52.093Z,8.98
2022-11-13T06:32:11.068Z,10.30
2022-11-13T06:35:30.063Z,10.02
2022-11-13T06:38:50.195Z,10.05
2022-11-13T06:42:09.330Z,9.35
2022-11-13T06:45:28.418Z,9.63
2022-11-13T06:48:47.059Z,8.85
2022-11-13T06:52:07.261Z,9.90
2022-11-13T06:55:26.072Z,9.23
2022-11-13T06:58:45.212Z,8.98
2022-11-13T07:02:05.281Z,9.38
2022-11-13T07:05:24.116Z,9.90
2022-11-13T07:08:44.391Z,10.38
2022-11-13T07:12:04.093Z,9.68
2022-11-13T07:15:23.204Z,8.25
2022-11-13T07:18:42.082Z,8.85
2022-11-13T07:21:54.087Z,9.23
2022-11-13T07:25:13.097Z,9.10
2022-11-13T07:28:32.351Z,9.32
2022-11-13T07:31:52.180Z,9.02
2022-11-13T07:35:11.330Z,7.88
2022-11-13T07:38:30.792Z,8.52
2022-11-13T07:41:50.398Z,8.38
2022-11-13T07:45:09.122Z,8.73
2022-11-13T07:48:30.552Z,8.07
2022-11-13T07:51:49.107Z,9.30
2022-11-13T07:55:08.249Z,7.15
2022-11-13T07:58:27.434Z,7.97
2022-11-13T08:01:46.128Z,7.30
2022-11-13T08:04:58.089Z,7.22
2022-11-13T08:08:18.533Z,7.55
2022-11-13T08:11:37.140Z,7.88
2022-11-13T08:14:49.116Z,6.55
2022-11-13T08:21:28.137Z,7.00
2022-11-13T08:24:41.093Z,7.38
2022-11-13T08:28:00.354Z,7.05
2022-11-13T08:31:24.135Z,7.28
2022-11-13T08:34:36.163Z,7.07
2022-11-13T08:37:55.098Z,8.80
2022-11-13T08:41:16.114Z,7.35
2022-11-13T08:44:35.219Z,6.47
2022-11-13T08:47:54.211Z,6.40
2022-11-13T08:51:06.272Z,6.88
2022-11-13T08:54:25.113Z,6.75
2022-11-13T08:57:44.427Z,6.68
2022-11-13T09:01:03.113Z,6.70
2022-11-13T09:04:22.147Z,6.78
2022-11-13T09:07:41.835Z,6.40
2022-11-13T09:11:01.160Z,6.32
2022-11-13T09:14:20.134Z,6.10
2022-11-13T09:17:39.140Z,5.97
2022-11-13T09:20:58.184Z,6.03
2022-11-13T09:24:17.146Z,5.82
2022-11-13T09:27:36.145Z,5.20
2022-11-13T09:30:55.162Z,5.20
2022-11-13T09:34:14.199Z,4.43
2022-11-13T09:37:34.156Z,4.25
2022-11-13T09:41:09.197Z,4.40
2022-11-13T09:44:56.224Z,4.30
2022-11-13T09:48:40.166Z,4.32
2022-11-13T09:52:05.254Z,3.88
2022-11-13T09:55:31.180Z,3.70
2022-11-13T09:59:00.151Z,3.65
2022-11-13T10:02:14.159Z,3.75
2022-11-13T10:05:26.181Z,3.75
2022-11-13T10:09:12.157Z,3.13
2022-11-13T10:12:24.184Z,3.20
2022-11-13T10:15:44.169Z,2.78
2022-11-13T10:19:04.252Z,2.80
2022-11-13T10:22:34.170Z,3.03
2022-11-13T10:25:53.189Z,2.63
2022-11-13T10:29:20.211Z,2.53
2022-11-13T10:32:41.190Z,2.45
2022-11-13T10:36:02.204Z,2.80
2022-11-13T10:39:22.185Z,2.73
2022-11-13T10:42:43.203Z,2.60
2022-11-13T10:46:28.179Z,2.50
2022-11-13T10:49:47.202Z,2.75
2022-11-13T10:53:08.178Z,2.72
2022-11-13T10:56:34.194Z,2.40
2022-11-13T10:59:58.202Z,2.20
2022-11-13T11:03:17.192Z,2.28
2022-11-13T11:07:18.512Z,2.47
2022-11-13T11:11:05.210Z,1.88
2022-11-13T11:14:48.224Z,1.85
2022-11-13T11:18:20.334Z,2.30
2022-11-13T11:21:43.223Z,2.55
2022-11-13T11:25:09.265Z,2.40
2022-11-13T11:29:01.272Z,2.50
2022-11-13T11:35:52.301Z,2.42
2022-11-13T11:39:32.357Z,2.10
2022-11-13T11:43:09.246Z,2.10
2022-11-13T11:46:30.253Z,2.40
2022-11-13T11:49:50.347Z,2.50
2022-11-13T11:53:14.207Z,2.30
2022-11-13T11:56:30.260Z,2.78
2022-11-13T12:00:04.321Z,2.53
2022-11-13T12:03:51.252Z,2.80
2022-11-13T12:07:26.314Z,2.53
2022-11-13T12:10:51.347Z,2.47
2022-11-13T12:14:27.258Z,2.70
2022-11-13T12:17:58.310Z,2.60
2022-11-13T12:21:20.672Z,2.38
2022-11-13T12:25:08.255Z,2.65
2022-11-13T12:28:45.287Z,2.22
2022-11-13T12:32:34.258Z,2.10
2022-11-13T12:35:46.278Z,1.98
2022-11-13T12:43:03.243Z,1.88
2022-11-13T12:46:24.268Z,2.00
2022-11-13T12:49:48.280Z,2.10
2022-11-13T12:53:22.276Z,1.83
2022-11-13T12:56:34.272Z,1.75
2022-11-13T13:03:21.264Z,1.83
2022-11-13T13:06:45.306Z,2.20
2022-11-13T13:10:25.267Z,1.90
2022-11-13T13:14:02.434Z,2.20
2022-11-13T13:17:27.281Z,2.20
2022-11-13T13:20:49.306Z,2.28
2022-11-13T13:24:14.403Z,3.13
2022-11-13T13:27:37.274Z,3.33
2022-11-13T13:31:17.325Z,3.00
2022-11-13T13:34:50.274Z,2.72
2022-11-13T13:38:24.301Z,2.78
2022-11-13T13:42:13.267Z,2.65
2022-11-13T13:45:58.323Z,2.42
2022-11-13T13:49:21.345Z,2.28
2022-11-13T13:52:45.294Z,2.75
2022-11-13T13:56:00.358Z,2.08
2022-11-13T13:59:28.295Z,2.15
2022-11-13T14:02:47.323Z,2.22
2022-11-13T14:06:03.422Z,2.60
2022-11-13T14:09:33.544Z,2.10
2022-11-13T14:12:55.291Z,2.50
2022-11-13T14:19:27.323Z,2.60
2022-11-13T14:22:48.390Z,2.88
2022-11-13T14:29:34.341Z,2.28
2022-11-13T14:36:07.900Z,2.47
2022-11-13T14:39:46.336Z,2.58
2022-11-13T14:43:11.324Z,2.38
2022-11-13T14:46:42.374Z,2.90
2022-11-13T14:50:01.346Z,3.17
2022-11-13T14:53:22.337Z,3.00
2022-11-13T14:56:53.410Z,3.10
2022-11-13T15:00:26.333Z,3.80
2022-11-13T15:03:38.505Z,3.33
2022-11-13T15:07:01.350Z,3.40
2022-11-13T15:10:25.344Z,3.03
2022-11-13T15:13:44.331Z,3.58
2022-11-13T15:17:05.335Z,3.40
2022-11-13T15:20:29.334Z,3.70
2022-11-13T15:23:49.373Z,3.40
2022-11-13T15:27:08.329Z,3.72
2022-11-13T15:30:27.361Z,3.70
2022-11-13T15:33:46.398Z,3.85
2022-11-13T15:37:05.368Z,3.88
2022-11-13T15:40:25.338Z,5.03
2022-11-13T15:43:44.349Z,5.15
2022-11-13T15:47:04.332Z,5.40
2022-11-13T15:50:23.410Z,6.20
2022-11-13T15:53:42.377Z,6.10
2022-11-13T15:57:02.368Z,6.63
2022-11-13T16:00:31.373Z,6.00
2022-11-13T16:03:50.364Z,5.60
2022-11-13T16:07:09.401Z,5.97
2022-11-13T16:10:29.413Z,6.05
2022-11-13T16:13:48.485Z,6.20
2022-11-13T16:17:09.393Z,6.50
2022-11-13T16:20:29.372Z,6.68
2022-11-13T16:23:49.368Z,6.57
2022-11-13T16:27:10.389Z,6.28
2022-11-13T16:30:31.419Z,5.68
2022-11-13T16:33:51.386Z,4.65
2022-11-13T16:37:10.414Z,6.40
2022-11-13T16:40:37.400Z,5.93
2022-11-13T16:43:57.386Z,7.03
2022-11-13T16:47:16.378Z,6.90
2022-11-13T16:50:46.390Z,6.18
2022-11-13T16:54:05.401Z,6.45
2022-11-13T16:57:25.525Z,6.22
2022-11-13T17:00:44.425Z,6.30
2022-11-13T17:04:03.403Z,7.10
2022-11-13T17:07:26.543Z,7.80
2022-11-13T17:10:38.384Z,6.85
2022-11-13T17:13:57.389Z,7.30
2022-11-13T17:17:21.380Z,7.50
2022-11-13T17:20:40.475Z,7.18
2022-11-13T17:23:59.430Z,7.10
2022-11-13T17:27:18.403Z,7.43
2022-11-13T17:30:37.405Z,8.32
2022-11-13T17:33:56.439Z,8.68
2022-11-13T17:37:15.406Z,12.20
2022-11-13T17:40:34.440Z,13.50
2022-11-13T17:43:59.887Z,13.75
2022-11-13T17:47:19.416Z,15.13
2022-11-13T17:50:38.412Z,13.77
2022-11-13T17:53:57.433Z,14.85
2022-11-13T17:57:16.414Z,14.52
2022-11-13T18:00:35.416Z,17.42
2022-11-13T18:03:55.411Z,16.42
2022-11-13T18:07:14.457Z,16.08
2022-11-13T18:10:33.386Z,15.60
2022-11-13T18:13:52.450Z,14.52
2022-11-13T18:17:11.398Z,14.18
2022-11-13T18:20:30.608Z,13.18
2022-11-13T18:23:49.595Z,12.85
2022-11-13T18:27:08.460Z,12.43
2022-11-13T18:30:20.416Z,12.57
2022-11-13T18:33:39.562Z,14.82
2022-11-13T18:36:58.409Z,12.73
2022-11-13T18:40:10.426Z,12.75
2022-11-13T18:43:29.730Z,13.13
2022-11-13T18:46:48.414Z,12.73
2022-11-13T18:50:00.417Z,12.77
2022-11-13T18:53:19.436Z,13.45
2022-11-13T18:56:40.520Z,12.00
2022-11-13T18:59:59.466Z,12.35
2022-11-13T19:03:18.462Z,12.38
2022-11-13T19:06:40.081Z,11.68
2022-11-13T19:09:58.499Z,11.60
2022-11-13T19:13:17.504Z,10.20
2022-11-13T19:16:39.454Z,10.93
2022-11-13T19:20:06.529Z,10.70
2022-11-13T19:23:25.523Z,10.77
2022-11-13T19:26:44.544Z,11.38
2022-11-13T19:29:56.552Z,11.50
2022-11-13T19:33:15.571Z,10.63
2022-11-13T19:36:35.582Z,11.13
2022-11-13T19:39:54.575Z,11.00
2022-11-13T19:43:13.516Z,10.65
2022-11-13T19:46:33.496Z,10.82
2022-11-13T19:49:46.539Z,10.95
2022-11-13T19:53:05.548Z,11.60
2022-11-13T19:56:24.526Z,12.10
2022-11-13T19:59:36.570Z,12.25
2022-11-13T20:02:55.553Z,13.52
2022-11-13T20:06:14.566Z,13.57
2022-11-13T20:09:29.624Z,12.93
2022-11-13T20:12:48.541Z,13.85
2022-11-13T20:16:07.587Z,13.95
2022-11-13T20:19:19.560Z,13.65
2022-11-13T20:22:38.599Z,13.88
2022-11-13T20:26:04.578Z,13.38
2022-11-13T20:29:23.623Z,13.80
2022-11-13T20:32:42.548Z,13.35
2022-11-13T20:36:07.556Z,13.05
2022-11-13T20:39:19.562Z,12.77
2022-11-13T20:42:40.566Z,13.50
2022-11-13T20:45:59.546Z,13.75
2022-11-13T20:49:11.557Z,13.07
2022-11-13T20:52:30.566Z,13.13
2022-11-13T20:55:49.547Z,13.30
2022-11-13T20:59:10.547Z,15.07
2022-11-13T21:02:29.487Z,16.05
2022-11-13T21:05:48.525Z,15.18
2022-11-13T21:09:08.485Z,14.15
2022-11-13T21:12:27.479Z,15.57
2022-11-13T21:15:46.486Z,14.80
2022-11-13T21:19:05.476Z,13.45
2022-11-13T21:22:17.489Z,14.30
2022-11-13T21:25:36.482Z,13.98
2022-11-13T21:28:55.492Z,12.68
2022-11-13T21:32:14.478Z,13.95
2022-11-13T21:35:33.731Z,13.05
2022-11-13T21:38:52.572Z,13.65
2022-11-13T21:42:11.524Z,13.80
2022-11-13T21:45:30.471Z,15.38
2022-11-13T21:48:49.524Z,14.52
2022-11-13T21:52:08.486Z,14.63
2022-11-13T21:55:27.509Z,15.20
2022-11-13T21:58:51.493Z,13.80
2022-11-13T22:02:10.576Z,15.48
2022-11-13T22:05:29.489Z,15.80
2022-11-13T22:08:48.534Z,15.65
2022-11-13T22:12:07.541Z,16.35
2022-11-13T22:15:26.525Z,16.33
2022-11-13T22:18:45.584Z,16.90
2022-11-13T22:22:04.522Z,16.40
2022-11-13T22:25:23.518Z,15.55
2022-11-13T22:28:42.534Z,14.55
2022-11-13T22:32:01.543Z,14.35
2022-11-13T22:35:20.520Z,14.70
2022-11-13T22:38:39.540Z,14.38
2022-11-13T22:41:58.510Z,14.95
2022-11-13T22:45:23.757Z,13.73
2022-11-13T22:48:42.523Z,13.15
2022-11-13T22:52:01.524Z,13.82
2022-11-13T22:55:20.523Z,13.98
2022-11-13T22:58:40.558Z,14.23
2022-11-13T23:01:59.508Z,13.75
2022-11-13T23:05:18.531Z,15.38
2022-11-13T23:08:37.522Z,14.95
2022-11-13T23:11:56.539Z,15.05
2022-11-13T23:15:15.537Z,16.30
2022-11-13T23:18:34.551Z,15.60
2022-11-13T23:21:53.518Z,15.18
2022-11-13T23:25:12.532Z,14.27
2022-11-13T23:28:31.877Z,14.35
2022-11-13T23:31:50.557Z,15.98
2022-11-13T23:35:09.532Z,14.85
2022-11-13T23:38:28.897Z,14.85
2022-11-13T23:41:47.538Z,15.10
2022-11-13T23:45:06.536Z,16.13
2022-11-13T23:48:19.547Z,15.55
2022-11-13T23:51:39.554Z,16.73
2022-11-13T23:54:58.537Z,15.80
2022-11-13T23:58:18.555Z,14.98
